createdAt,value
2018-09-11T00:00:55.830Z,10.40
2018-09-11T00:03:28.468Z,9.67
2018-09-11T00:05:59.225Z,10.87
2018-09-11T00:08:29.160Z,9.97
2018-09-11T00:10:58.870Z,10.23
2018-09-11T00:13:28.528Z,9.93
2018-09-11T00:15:58.390Z,9.30
2018-09-11T00:18:28.123Z,9.87
2018-09-11T00:20:57.793Z,10.00
2018-09-11T00:23:27.652Z,9.27
2018-09-11T00:25:57.849Z,9.43
2018-09-11T00:28:27.994Z,10.03
2018-09-11T00:30:58.784Z,9.13
2018-09-11T00:33:28.944Z,9.83
2018-09-11T00:35:58.902Z,9.97
2018-09-11T00:38:31.092Z,10.30
2018-09-11T00:41:01.096Z,10.03
2018-09-11T00:43:31.493Z,9.27
2018-09-11T00:46:01.868Z,9.70
2018-09-11T00:48:31.853Z,9.80
2018-09-11T00:51:01.589Z,8.80
2018-09-11T00:53:31.488Z,11.00
2018-09-11T00:56:02.901Z,9.90
2018-09-11T00:58:33.697Z,9.23
2018-09-11T01:01:03.981Z,9.50
2018-09-11T01:03:33.693Z,10.00
2018-09-11T01:06:03.342Z,9.57
2018-09-11T01:08:33.093Z,10.47
2018-09-11T01:11:02.797Z,9.30
2018-09-11T01:13:32.526Z,8.93
2018-09-11T01:16:02.250Z,10.67
2018-09-11T01:18:32.056Z,9.70
2018-09-11T01:21:01.946Z,9.60
2018-09-11T01:23:31.635Z,9.93
2018-09-11T01:26:01.282Z,10.10
2018-09-11T01:28:31.125Z,9.60
2018-09-11T01:31:00.904Z,9.57
2018-09-11T01:33:31.596Z,10.10
2018-09-11T01:36:01.519Z,10.37
2018-09-11T01:38:33.319Z,10.30
2018-09-11T01:41:03.061Z,9.67
2018-09-11T01:43:32.954Z,10.60
2018-09-11T01:46:03.075Z,10.90
2018-09-11T01:48:33.392Z,9.80
2018-09-11T01:51:03.306Z,10.20
2018-09-11T01:53:33.935Z,9.97
2018-09-11T01:56:04.923Z,9.23
2018-09-11T01:58:35.349Z,10.13
2018-09-11T02:01:05.630Z,10.50
2018-09-11T02:03:35.728Z,10.57
2018-09-11T02:06:05.999Z,10.00
2018-09-11T02:08:36.140Z,10.13
2018-09-11T02:11:06.520Z,9.90
2018-09-11T02:13:37.638Z,10.00
2018-09-11T02:16:07.863Z,10.70
2018-09-11T02:18:38.683Z,10.30
2018-09-11T02:21:08.849Z,8.70
2018-09-11T02:23:38.960Z,9.83
2018-09-11T02:26:09.367Z,10.60
2018-09-11T02:28:39.508Z,9.83
2018-09-11T02:31:09.148Z,10.47
2018-09-11T02:33:38.902Z,10.27
2018-09-11T02:36:08.688Z,9.50
2018-09-11T02:38:38.502Z,10.33
2018-09-11T02:41:10.187Z,10.70
2018-09-11T02:43:40.902Z,11.67
2018-09-11T02:46:10.763Z,11.80
2018-09-11T02:48:40.473Z,10.10
2018-09-11T02:51:10.237Z,10.77
2018-09-11T02:53:40.032Z,10.47
2018-09-11T02:56:10.131Z,9.93
2018-09-11T02:58:39.992Z,11.00
2018-09-11T03:01:09.775Z,9.57
2018-09-11T03:03:39.537Z,10.20
2018-09-11T03:06:09.547Z,10.33
2018-09-11T03:08:39.220Z,10.37
2018-09-11T03:11:09.015Z,9.53
2018-09-11T03:13:41.346Z,9.80
2018-09-11T03:16:12.684Z,10.53
2018-09-11T03:18:44.348Z,10.67
2018-09-11T03:21:14.175Z,11.03
2018-09-11T03:23:43.878Z,10.70
2018-09-11T03:26:13.574Z,10.50
2018-09-11T03:28:44.352Z,10.70
2018-09-11T03:31:14.004Z,11.13
2018-09-11T03:33:43.930Z,9.70
2018-09-11T03:36:13.695Z,11.27
2018-09-11T03:38:43.996Z,10.30
2018-09-11T03:41:13.650Z,10.27
2018-09-11T03:43:44.046Z,10.83
2018-09-11T03:46:13.744Z,11.17
2018-09-11T03:48:43.618Z,11.47
2018-09-11T03:51:13.404Z,9.80
2018-09-11T03:53:43.748Z,10.50
2018-09-11T03:56:13.509Z,10.60
2018-09-11T03:58:43.879Z,10.33
2018-09-11T04:01:14.728Z,10.90
2018-09-11T04:03:44.553Z,9.80
2018-09-11T04:06:15.607Z,10.77
2018-09-11T04:08:45.507Z,10.27
2018-09-11T04:11:15.227Z,10.70
2018-09-11T04:13:44.986Z,10.97
2018-09-11T04:16:14.719Z,11.17
2018-09-11T04:18:44.511Z,10.70
2018-09-11T04:21:14.151Z,9.60
2018-09-11T04:23:43.916Z,10.10
2018-09-11T04:26:13.847Z,9.87
2018-09-11T04:28:43.763Z,10.43
2018-09-11T04:31:13.573Z,9.80
2018-09-11T04:33:43.730Z,10.40
2018-09-11T04:36:14.385Z,10.47
2018-09-11T04:38:45.577Z,9.20
2018-09-11T04:41:15.241Z,9.63
2018-09-11T04:43:45.027Z,9.53
2018-09-11T04:46:15.020Z,9.73
2018-09-11T04:48:46.132Z,9.23
2018-09-11T04:51:16.064Z,10.60
2018-09-11T04:53:46.872Z,10.30
2018-09-11T04:56:17.249Z,9.50
2018-09-11T04:58:47.070Z,9.00
2018-09-11T05:01:17.789Z,10.53
2018-09-11T05:03:47.745Z,9.20
2018-09-11T05:06:17.422Z,10.67
2018-09-11T05:08:47.071Z,8.83
2018-09-11T05:11:16.903Z,10.70
2018-09-11T05:13:46.605Z,10.87
2018-09-11T05:16:16.777Z,10.37
2018-09-11T05:18:48.170Z,10.53
2018-09-11T05:21:17.880Z,9.70
2018-09-11T05:23:47.681Z,10.40
2018-09-11T05:26:17.361Z,9.97
2018-09-11T05:28:47.127Z,10.70
2018-09-11T05:31:17.164Z,10.23
2018-09-11T05:33:49.548Z,9.90
2018-09-11T05:36:19.488Z,10.00
2018-09-11T05:38:49.419Z,10.13
2018-09-11T05:41:19.657Z,10.40
2018-09-11T05:43:52.103Z,11.20
2018-09-11T05:46:21.779Z,10.00
2018-09-11T05:48:51.740Z,11.10
2018-09-11T05:51:21.642Z,9.70
2018-09-11T05:53:51.844Z,9.67
2018-09-11T05:56:22.830Z,10.13
2018-09-11T05:58:52.588Z,9.50
2018-09-11T06:01:22.368Z,8.60
2018-09-11T06:03:52.103Z,9.70
2018-09-11T06:06:21.918Z,9.37
2018-09-11T06:08:53.407Z,8.70
2018-09-11T06:11:23.315Z,9.63
2018-09-11T06:13:53.374Z,10.13
2018-09-11T06:16:23.198Z,10.53
2018-09-11T06:18:53.142Z,9.97
2018-09-11T06:21:23.315Z,9.70
2018-09-11T06:23:53.130Z,9.60
2018-09-11T06:26:22.834Z,10.30
2018-09-11T06:28:53.001Z,9.00
2018-09-11T06:31:24.573Z,9.70
2018-09-11T06:33:55.160Z,10.13
2018-09-11T06:36:25.948Z,9.63
2018-09-11T06:38:59.645Z,9.07
2018-09-11T06:41:31.648Z,9.63
2018-09-11T06:44:02.224Z,9.10
2018-09-11T06:46:32.121Z,9.03
2018-09-11T06:49:03.448Z,9.00
2018-09-11T06:51:33.435Z,9.93
2018-09-11T06:54:03.263Z,9.60
2018-09-11T06:56:33.114Z,8.80
2018-09-11T06:59:03.914Z,8.83
2018-09-11T07:01:33.665Z,9.57
2018-09-11T07:04:03.295Z,10.40
2018-09-11T07:06:33.050Z,9.83
2018-09-11T07:09:03.019Z,9.63
2018-09-11T07:11:32.803Z,10.50
2018-09-11T07:14:03.087Z,9.70
2018-09-11T07:16:33.772Z,9.70
2018-09-11T07:19:04.272Z,8.87
2018-09-11T07:21:35.049Z,9.40
2018-09-11T07:24:05.544Z,9.30
2018-09-11T07:26:35.669Z,9.50
2018-09-11T07:29:06.039Z,9.07
2018-09-11T07:31:37.027Z,9.20
2018-09-11T07:34:08.261Z,8.93
2018-09-11T07:36:38.263Z,10.80
2018-09-11T07:39:10.760Z,9.50
2018-09-11T07:41:46.519Z,9.13
2018-09-11T07:44:18.888Z,9.80
2018-09-11T07:46:51.787Z,9.63
2018-09-11T07:49:24.692Z,8.90
2018-09-11T07:51:56.436Z,9.50
2018-09-11T07:54:29.429Z,8.80
2018-09-11T07:57:03.365Z,9.10
2018-09-11T07:59:36.061Z,9.17
2018-09-11T08:02:06.168Z,9.87
2018-09-11T08:04:39.833Z,9.23
2018-09-11T08:07:12.950Z,10.60
2018-09-11T08:09:46.140Z,10.40
2018-09-11T08:12:15.778Z,10.40
2018-09-11T08:14:45.537Z,9.60
2018-09-11T08:17:18.236Z,10.27
2018-09-11T08:19:48.084Z,10.13
2018-09-11T08:22:19.816Z,10.10
2018-09-11T08:24:49.709Z,10.33
2018-09-11T08:27:19.815Z,10.57
2018-09-11T08:29:50.315Z,9.70
2018-09-11T08:32:21.160Z,9.97
2018-09-11T08:34:52.711Z,9.20
2018-09-11T08:37:24.512Z,9.77
2018-09-11T08:39:56.169Z,9.80
2018-09-11T08:42:27.612Z,10.20
2018-09-11T08:44:58.725Z,10.50
2018-09-11T08:47:32.354Z,11.30
2018-09-11T08:50:04.074Z,9.90
2018-09-11T08:52:35.416Z,10.37
2018-09-11T08:55:08.148Z,10.53
2018-09-11T08:57:38.016Z,10.90
2018-09-11T09:00:08.652Z,11.00
2018-09-11T09:02:38.449Z,10.40
2018-09-11T09:05:08.253Z,9.63
2018-09-11T09:07:39.156Z,10.00
2018-09-11T09:10:10.185Z,10.70
2018-09-11T09:12:39.636Z,9.93
2018-09-11T09:15:09.344Z,9.40
2018-09-11T09:17:40.562Z,10.30
2018-09-11T09:20:10.196Z,9.80
2018-09-11T09:22:41.713Z,10.00
2018-09-11T09:25:11.804Z,9.77
2018-09-11T09:27:42.218Z,10.90
2018-09-11T09:30:13.392Z,11.77
2018-09-11T09:32:46.297Z,10.90
2018-09-11T09:35:16.516Z,10.57
2018-09-11T09:37:46.701Z,10.60
2018-09-11T09:40:16.750Z,10.37
2018-09-11T09:42:47.084Z,10.13
2018-09-11T09:45:17.454Z,9.67
2018-09-11T09:47:47.892Z,10.40
2018-09-11T09:50:18.546Z,9.47
2018-09-11T09:52:48.691Z,10.17
2018-09-11T09:55:19.120Z,10.70
2018-09-11T09:57:50.578Z,10.63
2018-09-11T10:00:25.409Z,11.93
2018-09-11T10:02:55.866Z,11.53
2018-09-11T10:05:26.515Z,10.07
2018-09-11T10:07:56.816Z,10.93
2018-09-11T10:10:26.874Z,10.50
2018-09-11T10:12:56.653Z,10.53
2018-09-11T10:15:26.464Z,10.27
2018-09-11T10:17:56.194Z,11.27
2018-09-11T10:20:26.153Z,10.70
2018-09-11T10:22:55.768Z,11.07
2018-09-11T10:25:26.948Z,10.10
2018-09-11T10:27:56.715Z,10.53
2018-09-11T10:30:26.459Z,10.10
2018-09-11T10:32:56.205Z,11.37
2018-09-11T10:35:26.047Z,10.07
2018-09-11T10:37:56.033Z,10.27
2018-09-11T10:40:28.717Z,10.40
2018-09-11T10:42:59.040Z,10.27
2018-09-11T10:45:30.366Z,10.23
2018-09-11T10:48:01.178Z,10.23
2018-09-11T10:50:31.277Z,10.20
2018-09-11T10:53:01.435Z,10.23
2018-09-11T10:55:31.800Z,10.20
2018-09-11T10:58:02.198Z,10.50
2018-09-11T11:00:32.398Z,10.50
2018-09-11T11:03:02.660Z,9.67
2018-09-11T11:05:32.916Z,11.33
2018-09-11T11:08:04.193Z,11.33
2018-09-11T11:10:34.469Z,10.73
2018-09-11T11:13:04.772Z,10.70
2018-09-11T11:15:37.266Z,9.83
2018-09-11T11:18:06.938Z,10.70
2018-09-11T11:20:37.527Z,9.20
2018-09-11T11:23:08.116Z,9.40
2018-09-11T11:25:39.061Z,9.20
2018-09-11T11:28:10.111Z,10.60
2018-09-11T11:30:40.356Z,10.00
2018-09-11T11:33:10.197Z,9.50
2018-09-11T11:35:39.935Z,10.50
2018-09-11T11:38:09.722Z,10.10
2018-09-11T11:40:39.662Z,8.90
2018-09-11T11:43:09.399Z,9.47
2018-09-11T11:45:41.824Z,9.77
2018-09-11T11:48:12.795Z,9.73
2018-09-11T11:50:43.132Z,10.10
2018-09-11T11:53:14.510Z,10.53
2018-09-11T11:55:45.400Z,10.90
2018-09-11T11:58:16.310Z,10.50
2018-09-11T12:00:47.347Z,10.10
2018-09-11T12:03:17.499Z,9.77
2018-09-11T12:05:47.661Z,10.60
2018-09-11T12:08:17.961Z,9.60
2018-09-11T12:10:49.114Z,11.10
2018-09-11T12:13:19.634Z,10.07
2018-09-11T12:15:50.592Z,11.00
2018-09-11T12:18:24.555Z,10.80
2018-09-11T12:20:54.505Z,10.73
2018-09-11T12:23:27.256Z,9.50
2018-09-11T12:25:57.306Z,10.20
2018-09-11T12:28:27.089Z,10.13
2018-09-11T12:30:56.826Z,11.83
2018-09-11T12:33:26.687Z,10.10
2018-09-11T12:35:56.406Z,10.00
2018-09-11T12:38:26.138Z,10.67
2018-09-11T12:40:56.963Z,9.83
2018-09-11T12:43:27.023Z,11.00
2018-09-11T12:45:57.949Z,10.60
2018-09-11T12:48:28.857Z,9.43
2018-09-11T12:50:59.022Z,11.37
2018-09-11T12:53:30.993Z,10.10
2018-09-11T12:56:01.912Z,10.27
2018-09-11T13:05:21.338Z,9.17
2018-09-11T13:07:51.718Z,9.50
2018-09-11T13:10:21.542Z,9.37
2018-09-11T13:12:51.313Z,9.53
2018-09-11T13:15:20.999Z,9.97
2018-09-11T13:17:51.596Z,9.37
2018-09-11T13:20:23.184Z,9.97
2018-09-11T13:22:52.976Z,9.20
2018-09-11T13:25:22.796Z,9.37
2018-09-11T13:27:52.527Z,9.27
2018-09-11T13:30:22.377Z,9.43
2018-09-11T13:32:52.132Z,9.40
2018-09-11T13:35:24.199Z,9.90
2018-09-11T13:37:53.915Z,10.77
2018-09-11T13:40:23.676Z,10.67
2018-09-11T13:42:53.433Z,11.30
2018-09-11T13:45:24.499Z,10.63
2018-09-11T13:47:55.763Z,10.70
2018-09-11T13:50:26.085Z,11.10
2018-09-11T13:52:59.094Z,11.17
2018-09-11T13:55:29.995Z,11.60
2018-09-11T13:58:00.709Z,11.60
2018-09-11T14:00:31.833Z,11.23
2018-09-11T14:03:02.334Z,10.60
2018-09-11T14:05:32.354Z,9.37
2018-09-11T14:08:02.945Z,11.70
2018-09-11T14:10:34.342Z,11.07
2018-09-11T14:13:04.662Z,11.50
2018-09-11T14:15:37.460Z,11.17
2018-09-11T14:18:07.575Z,10.80
2018-09-11T14:20:38.078Z,10.47
2018-09-11T14:23:09.483Z,11.53
2018-09-11T14:25:40.414Z,11.50
2018-09-11T14:28:10.940Z,11.07
2018-09-11T14:30:41.905Z,11.17
2018-09-11T14:33:14.211Z,11.10
2018-09-11T14:35:44.629Z,10.83
2018-09-11T14:38:15.171Z,12.90
2018-09-11T14:40:45.417Z,10.87
2018-09-11T14:43:16.419Z,11.27
2018-09-11T14:45:46.497Z,10.83
2018-09-11T14:48:17.071Z,10.67
2018-09-11T14:50:47.071Z,10.93
2018-09-11T14:53:17.521Z,10.90
2018-09-11T14:55:50.813Z,10.63
2018-09-11T14:58:21.848Z,10.53
2018-09-11T15:00:52.008Z,10.70
2018-09-11T15:03:24.227Z,10.43
2018-09-11T15:05:54.629Z,10.27
2018-09-11T15:08:25.352Z,11.77
2018-09-11T15:10:55.384Z,10.37
2018-09-11T15:13:27.445Z,10.50
2018-09-11T15:15:57.947Z,12.10
2018-09-11T15:18:33.417Z,11.53
2018-09-11T15:21:04.528Z,9.77
2018-09-11T15:23:34.843Z,10.47
2018-09-11T15:26:04.859Z,10.80
2018-09-11T15:28:34.959Z,10.60
2018-09-11T15:31:05.171Z,12.60
2018-09-11T15:33:36.649Z,11.97
2018-09-11T15:36:07.108Z,10.00
2018-09-11T15:38:37.346Z,11.00
2018-09-11T15:41:07.140Z,11.40
2018-09-11T15:43:36.971Z,11.07
2018-09-11T15:46:06.804Z,12.33
2018-09-11T15:48:37.221Z,11.70
2018-09-11T15:51:07.812Z,10.80
2018-09-11T15:53:38.205Z,10.50
2018-09-11T15:56:08.088Z,10.70
2018-09-11T15:58:38.002Z,10.90
2018-09-11T16:01:08.918Z,11.77
2018-09-11T16:03:38.647Z,11.17
2018-09-11T16:06:08.662Z,11.50
2018-09-11T16:08:38.545Z,12.10
2018-09-11T16:11:09.413Z,11.80
2018-09-11T16:13:39.281Z,11.23
2018-09-11T16:16:09.060Z,10.60
2018-09-11T16:18:39.029Z,11.90
2018-09-11T16:21:10.368Z,11.37
2018-09-11T16:23:40.590Z,11.50
2018-09-11T16:26:11.614Z,10.77
2018-09-11T16:28:41.712Z,11.00
2018-09-11T16:31:11.908Z,12.20
2018-09-11T16:33:41.725Z,11.57
2018-09-11T16:36:11.507Z,12.00
2018-09-11T16:38:41.247Z,11.83
2018-09-11T16:41:10.945Z,13.13
2018-09-11T16:43:40.773Z,12.20
2018-09-11T16:46:11.259Z,13.00
2018-09-11T16:48:46.128Z,12.23
2018-09-11T16:51:15.928Z,12.07
2018-09-11T16:53:46.603Z,14.93
2018-09-11T16:56:16.473Z,14.57
2018-09-11T16:58:46.135Z,14.23
2018-09-11T17:01:15.841Z,14.87
2018-09-11T17:03:45.727Z,15.13
2018-09-11T17:06:15.413Z,14.70
2018-09-11T17:08:45.230Z,13.33
2018-09-11T17:11:15.407Z,12.83
2018-09-11T17:13:45.167Z,14.70
2018-09-11T17:16:14.911Z,12.93
2018-09-11T17:18:44.732Z,14.17
2018-09-11T17:21:14.727Z,14.07
2018-09-11T17:23:45.055Z,13.30
2018-09-11T17:26:14.832Z,13.07
2018-09-11T17:28:44.759Z,13.70
2018-09-11T17:31:14.821Z,12.57
2018-09-11T17:33:44.604Z,14.00
2018-09-11T17:36:14.343Z,12.27
2018-09-11T17:38:48.830Z,11.97
2018-09-11T17:41:18.699Z,12.70
2018-09-11T17:43:48.360Z,12.90
2018-09-11T17:46:18.297Z,13.73
2018-09-11T17:48:48.154Z,13.73
2018-09-11T17:51:19.444Z,13.47
2018-09-11T17:53:49.339Z,13.83
2018-09-11T17:56:20.744Z,13.00
2018-09-11T17:58:50.625Z,13.30
2018-09-11T18:01:21.488Z,12.67
2018-09-11T18:03:52.323Z,12.60
2018-09-11T18:06:22.082Z,11.50
2018-09-11T18:08:53.040Z,12.77
2018-09-11T18:11:22.825Z,12.70
2018-09-11T18:13:52.512Z,12.23
2018-09-11T18:16:22.335Z,11.57
2018-09-11T18:18:54.729Z,11.97
2018-09-11T18:21:28.759Z,12.67
2018-09-11T18:24:04.592Z,11.40
2018-09-11T18:26:36.653Z,12.77
2018-09-11T18:29:08.707Z,12.23
2018-09-11T18:31:39.365Z,12.20
2018-09-11T18:34:09.127Z,11.93
2018-09-11T18:36:38.859Z,13.00
2018-09-11T18:39:11.227Z,11.57
2018-09-11T18:41:41.051Z,11.30
2018-09-11T18:44:10.718Z,13.40
2018-09-11T18:46:40.942Z,13.10
2018-09-11T18:49:11.220Z,11.47
2018-09-11T18:51:46.529Z,13.43
2018-09-11T18:54:17.191Z,13.73
2018-09-11T18:56:49.618Z,13.20
2018-09-11T18:59:21.202Z,13.10
2018-09-11T19:01:54.612Z,12.87
2018-09-11T19:04:25.405Z,12.80
2018-09-11T19:06:56.369Z,13.90
2018-09-11T19:09:26.902Z,12.40
2018-09-11T19:11:57.158Z,13.47
2018-09-11T19:14:27.284Z,14.10
2018-09-11T19:16:57.517Z,13.33
2018-09-11T19:19:27.948Z,13.50
2018-09-11T19:21:59.063Z,13.60
2018-09-11T19:24:30.129Z,13.23
2018-09-11T19:27:00.007Z,13.27
2018-09-11T19:29:30.673Z,12.23
2018-09-11T19:32:01.659Z,13.83
2018-09-11T19:34:31.940Z,13.00
2018-09-11T19:37:02.361Z,13.03
2018-09-11T19:39:33.496Z,13.23
2018-09-11T19:42:04.580Z,13.40
2018-09-11T19:44:34.574Z,13.47
2018-09-11T19:47:04.951Z,13.10
2018-09-11T19:49:37.162Z,13.20
2018-09-11T19:52:08.268Z,14.13
2018-09-11T19:54:38.524Z,12.20
2018-09-11T19:57:09.783Z,13.10
2018-09-11T19:59:41.528Z,12.23
2018-09-11T20:02:11.743Z,12.30
2018-09-11T20:04:42.103Z,12.30
2018-09-11T20:07:12.376Z,13.33
2018-09-11T20:09:47.992Z,12.00
2018-09-11T20:12:18.173Z,11.60
2018-09-11T20:14:49.052Z,12.70
2018-09-11T20:17:19.340Z,12.80
2018-09-11T20:19:49.614Z,12.30
2018-09-11T20:22:20.714Z,11.60
2018-09-11T20:24:50.871Z,10.20
2018-09-11T20:27:21.237Z,10.90
2018-09-11T20:29:51.420Z,10.80
2018-09-11T20:32:22.097Z,10.63
2018-09-11T20:34:52.346Z,10.20
2018-09-11T20:37:23.402Z,9.90
2018-09-11T20:39:53.761Z,11.40
2018-09-11T20:42:26.722Z,10.40
2018-09-11T20:44:56.845Z,11.57
2018-09-11T20:47:26.985Z,11.27
2018-09-11T20:49:59.404Z,11.60
2018-09-11T20:52:30.791Z,11.20
2018-09-11T20:55:03.164Z,10.93
2018-09-11T20:57:34.985Z,11.63
2018-09-11T21:00:05.906Z,10.90
2018-09-11T21:02:36.236Z,10.87
2018-09-11T21:05:06.624Z,10.80
2018-09-11T21:07:37.084Z,11.47
2018-09-11T21:10:07.396Z,10.57
2018-09-11T21:12:37.611Z,9.73
2018-09-11T21:15:07.880Z,10.50
2018-09-11T21:17:37.935Z,11.33
2018-09-11T21:20:08.336Z,10.47
2018-09-11T21:22:39.435Z,11.10
2018-09-11T21:25:09.485Z,11.00
2018-09-11T21:27:39.999Z,11.43
2018-09-11T21:30:11.083Z,10.50
2018-09-11T21:32:42.459Z,11.27
2018-09-11T21:35:12.806Z,11.07
2018-09-11T21:37:42.911Z,10.90
2018-09-11T21:40:13.167Z,10.67
2018-09-11T21:42:43.399Z,10.70
2018-09-11T21:45:14.707Z,11.27
2018-09-11T21:47:44.975Z,12.17
2018-09-11T21:50:15.055Z,10.50
2018-09-11T21:52:51.505Z,11.27
2018-09-11T21:55:21.617Z,11.17
2018-09-11T21:57:51.660Z,11.57
2018-09-11T22:00:21.886Z,12.20
2018-09-11T22:02:52.154Z,10.87
2018-09-11T22:05:22.438Z,11.40
2018-09-11T22:07:53.820Z,11.70
2018-09-11T22:10:24.097Z,11.20
2018-09-11T22:12:54.136Z,11.30
2018-09-11T22:15:24.144Z,12.00
2018-09-11T22:17:54.630Z,10.23
2018-09-11T22:20:27.796Z,11.47
2018-09-11T22:22:57.940Z,10.43
2018-09-11T22:25:29.289Z,11.80
2018-09-11T22:28:02.203Z,10.57
2018-09-11T22:30:32.322Z,11.40
2018-09-11T22:33:03.465Z,10.90
2018-09-11T22:35:34.688Z,10.83
2018-09-11T22:38:05.806Z,11.40
2018-09-11T22:40:36.055Z,10.60
2018-09-11T22:43:07.858Z,10.77
2018-09-11T22:45:38.169Z,10.73
2018-09-11T22:48:08.462Z,11.63
2018-09-11T22:50:41.338Z,11.47
2018-09-11T22:53:12.648Z,12.07
2018-09-11T22:55:43.029Z,10.93
2018-09-11T22:58:13.056Z,11.53
2018-09-11T23:00:43.748Z,10.40
2018-09-11T23:03:15.059Z,10.70
2018-09-11T23:05:45.895Z,11.20
2018-09-11T23:08:16.230Z,11.13
2018-09-11T23:10:46.337Z,11.67
2018-09-11T23:13:16.616Z,12.30
2018-09-11T23:15:46.740Z,11.40
2018-09-11T23:18:17.195Z,11.30
2018-09-11T23:20:48.815Z,10.87
2018-09-11T23:23:18.995Z,11.57
2018-09-11T23:25:51.232Z,11.63
2018-09-11T23:28:21.510Z,12.67
2018-09-11T23:30:51.829Z,12.10
2018-09-11T23:33:22.239Z,11.97
2018-09-11T23:35:52.305Z,11.47
2018-09-11T23:38:24.411Z,12.27
2018-09-11T23:40:55.311Z,11.27
2018-09-11T23:43:25.402Z,11.40
2018-09-11T23:45:55.588Z,11.93
2018-09-11T23:48:25.906Z,10.83
2018-09-11T23:50:55.787Z,11.50
2018-09-11T23:53:28.090Z,12.30
2018-09-11T23:56:01.714Z,11.50
2018-09-11T23:58:31.988Z,11.63
